createdAt,value
2022-08-18T00:00:07.467Z,20.98
2022-08-18T00:02:43.611Z,21.09
2022-08-18T00:05:28.405Z,21.12
2022-08-18T00:07:58.837Z,21.09
2022-08-18T00:10:27.492Z,21.07
2022-08-18T00:12:57.082Z,21.21
2022-08-18T00:15:31.029Z,21.10
2022-08-18T00:17:58.764Z,21.13
2022-08-18T00:20:27.353Z,21.07
2022-08-18T00:22:56.534Z,21.16
2022-08-18T00:25:25.440Z,21.17
2022-08-18T00:27:53.131Z,21.13
2022-08-18T00:30:22.939Z,21.10
2022-08-18T00:32:54.911Z,20.98
2022-08-18T00:35:29.040Z,21.04
2022-08-18T00:37:58.869Z,21.06
2022-08-18T00:40:34.491Z,21.06
2022-08-18T00:43:07.757Z,21.09
2022-08-18T00:45:38.594Z,20.96
2022-08-18T00:48:09.819Z,20.76
2022-08-18T00:50:42.590Z,20.73
2022-08-18T00:53:13.507Z,20.70
2022-08-18T00:55:43.751Z,20.77
2022-08-18T00:58:34.388Z,20.80
2022-08-18T01:01:06.866Z,20.64
2022-08-18T01:03:39.942Z,20.43
2022-08-18T01:06:15.085Z,20.38
2022-08-18T01:08:42.848Z,20.42
2022-08-18T01:11:11.823Z,20.50
2022-08-18T01:13:42.616Z,20.48
2022-08-18T01:16:28.636Z,20.66
2022-08-18T01:19:15.386Z,20.81
2022-08-18T01:21:53.584Z,21.00
2022-08-18T01:24:46.527Z,21.11
2022-08-18T01:27:18.198Z,20.88
2022-08-18T01:29:46.375Z,20.91
2022-08-18T01:32:19.856Z,20.85
2022-08-18T01:34:48.474Z,20.76
2022-08-18T01:37:19.092Z,20.77
2022-08-18T01:41:22.317Z,20.59
2022-08-18T01:42:37.129Z,20.41
2022-08-18T01:45:07.968Z,20.31
2022-08-18T01:47:47.909Z,20.21
2022-08-18T01:50:17.270Z,20.30
2022-08-18T01:52:45.405Z,20.23
2022-08-18T01:55:14.845Z,20.39
2022-08-18T01:57:45.504Z,20.50
2022-08-18T02:00:15.984Z,20.70
2022-08-18T02:02:44.291Z,21.00
2022-08-18T02:05:18.271Z,21.42
2022-08-18T02:07:46.772Z,21.45
2022-08-18T02:10:18.001Z,21.50
2022-08-18T02:12:46.111Z,21.68
2022-08-18T02:15:14.086Z,21.75
2022-08-18T02:17:45.383Z,22.25
2022-08-18T02:20:17.301Z,22.22
2022-08-18T02:22:46.216Z,22.14
2022-08-18T02:25:16.417Z,22.49
2022-08-18T02:27:44.325Z,22.53
2022-08-18T02:30:15.322Z,22.68
2022-08-18T02:32:43.552Z,22.75
2022-08-18T02:35:12.646Z,22.80
2022-08-18T02:37:50.383Z,23.00
2022-08-18T02:40:20.422Z,23.02
2022-08-18T02:42:48.679Z,22.96
2022-08-18T02:45:16.626Z,23.07
2022-08-18T02:47:45.188Z,23.22
2022-08-18T02:50:14.463Z,23.27
2022-08-18T02:52:42.526Z,23.20
2022-08-18T02:55:11.706Z,23.14
2022-08-18T02:57:45.367Z,23.22
2022-08-18T03:00:16.029Z,23.15
2022-08-18T03:02:48.345Z,23.12
2022-08-18T03:05:16.906Z,23.12
2022-08-18T03:07:45.654Z,23.03
2022-08-18T03:10:31.397Z,23.21
2022-08-18T03:15:46.429Z,23.21
2022-08-18T03:18:14.997Z,23.13
2022-08-18T03:20:44.129Z,23.06
2022-08-18T03:23:12.941Z,23.09
2022-08-18T03:25:46.578Z,22.98
2022-08-18T03:28:17.342Z,22.88
2022-08-18T03:30:45.283Z,22.92
2022-08-18T03:33:13.529Z,22.90
2022-08-18T03:35:42.042Z,22.81
2022-08-18T03:38:10.320Z,22.76
2022-08-18T03:40:38.205Z,22.86
2022-08-18T03:43:50.158Z,22.88
2022-08-18T03:45:56.829Z,22.82
2022-08-18T03:48:25.682Z,22.86
2022-08-18T03:50:53.570Z,22.78
2022-08-18T03:53:21.748Z,22.73
2022-08-18T03:55:49.669Z,22.77
2022-08-18T03:58:17.964Z,22.70
2022-08-18T04:00:45.819Z,22.72
2022-08-18T04:03:15.438Z,22.76
2022-08-18T04:05:43.338Z,22.93
2022-08-18T04:08:11.388Z,22.87
2022-08-18T04:10:39.240Z,22.88
2022-08-18T04:13:07.528Z,22.93
2022-08-18T04:15:35.381Z,23.02
2022-08-18T04:18:04.749Z,23.04
2022-08-18T04:20:34.145Z,22.91
2022-08-18T04:23:02.548Z,22.74
2022-08-18T04:25:33.390Z,22.67
2022-08-18T04:28:03.850Z,22.65
2022-08-18T04:30:32.096Z,22.76
2022-08-18T04:33:02.743Z,22.71
2022-08-18T04:35:33.667Z,22.41
2022-08-18T04:38:01.940Z,22.09
2022-08-18T04:40:33.608Z,21.98
2022-08-18T04:43:02.400Z,21.91
2022-08-18T04:45:30.267Z,21.94
2022-08-18T04:47:58.192Z,22.05
2022-08-18T04:50:26.353Z,22.05
2022-08-18T04:53:13.519Z,21.99
2022-08-18T04:55:48.361Z,22.04
2022-08-18T04:58:19.085Z,22.23
2022-08-18T05:00:47.537Z,22.14
2022-08-18T05:03:15.941Z,22.12
2022-08-18T05:05:43.791Z,22.35
2022-08-18T05:08:13.389Z,22.49
2022-08-18T05:10:41.485Z,22.81
2022-08-18T05:13:10.196Z,22.92
2022-08-18T05:16:07.142Z,23.27
2022-08-18T05:18:28.545Z,23.50
2022-08-18T05:20:57.503Z,23.53
2022-08-18T05:23:30.684Z,23.50
2022-08-18T05:26:00.774Z,23.38
2022-08-18T05:28:29.576Z,23.56
2022-08-18T05:31:00.522Z,23.72
2022-08-18T05:33:29.058Z,23.64
2022-08-18T05:36:04.927Z,23.65
2022-08-18T05:38:43.525Z,23.59
2022-08-18T05:41:22.796Z,23.59
2022-08-18T05:43:52.556Z,23.52
2022-08-18T05:46:25.808Z,23.33
2022-08-18T05:48:54.176Z,23.12
2022-08-18T05:51:30.457Z,22.71
2022-08-18T05:54:29.792Z,22.03
2022-08-18T05:57:02.847Z,21.79
2022-08-18T05:59:34.303Z,21.83
2022-08-18T06:02:07.800Z,21.95
2022-08-18T06:04:44.601Z,22.18
2022-08-18T06:07:16.835Z,22.34
2022-08-18T06:09:49.628Z,22.32
2022-08-18T06:12:41.140Z,21.76
2022-08-18T06:15:16.996Z,20.66
2022-08-18T06:18:02.480Z,20.38
2022-08-18T06:20:37.117Z,20.38
2022-08-18T06:23:21.777Z,20.42
2022-08-18T06:26:05.573Z,20.41
2022-08-18T06:28:54.154Z,20.41
2022-08-18T06:31:29.673Z,20.35
2022-08-18T06:34:08.213Z,20.49
2022-08-18T06:36:45.067Z,20.85
2022-08-18T06:39:22.186Z,21.41
2022-08-18T06:41:53.752Z,21.55
2022-08-18T06:44:36.530Z,21.32
2022-08-18T06:47:11.276Z,21.08
2022-08-18T06:49:46.950Z,21.05
2022-08-18T06:52:21.193Z,21.25
2022-08-18T06:54:51.545Z,21.13
2022-08-18T06:57:30.376Z,21.12
2022-08-18T07:00:03.886Z,21.05
2022-08-18T07:02:54.446Z,21.07
2022-08-18T07:05:26.601Z,21.34
2022-08-18T07:08:12.724Z,21.81
2022-08-18T07:10:44.026Z,22.29
2022-08-18T07:13:30.440Z,22.14
2022-08-18T07:16:26.417Z,22.58
2022-08-18T07:19:08.978Z,22.41
2022-08-18T07:21:39.003Z,22.82
2022-08-18T07:24:24.152Z,22.52
2022-08-18T07:27:01.837Z,22.73
2022-08-18T07:29:34.434Z,23.29
2022-08-18T07:32:12.538Z,23.23
2022-08-18T07:34:55.473Z,23.09
2022-08-18T07:37:29.322Z,22.86
2022-08-18T07:40:02.865Z,22.59
2022-08-18T07:43:00.566Z,22.03
2022-08-18T07:45:34.538Z,22.49
2022-08-18T07:48:27.361Z,23.28
2022-08-18T07:51:08.797Z,23.48
2022-08-18T07:53:54.796Z,23.22
2022-08-18T07:56:38.108Z,23.12
2022-08-18T07:59:14.110Z,22.84
2022-08-18T08:01:51.733Z,23.09
2022-08-18T08:04:32.063Z,23.78
2022-08-18T08:07:25.649Z,24.21
2022-08-18T08:10:13.488Z,24.79
2022-08-18T08:12:49.996Z,24.99
2022-08-18T08:15:28.388Z,25.79
2022-08-18T08:18:09.220Z,25.51
2022-08-18T08:20:44.894Z,25.53
2022-08-18T08:23:27.472Z,25.66
2022-08-18T08:26:25.429Z,25.14
2022-08-18T08:29:04.271Z,24.08
2022-08-18T08:31:44.560Z,25.00
2022-08-18T08:34:18.006Z,25.24
2022-08-18T08:36:48.347Z,25.28
2022-08-18T08:39:22.535Z,24.67
2022-08-18T08:41:57.856Z,24.81
2022-08-18T08:44:58.918Z,24.92
2022-08-18T08:47:33.493Z,25.09
2022-08-18T08:50:08.279Z,24.97
2022-08-18T08:52:41.534Z,24.11
2022-08-18T08:55:16.431Z,23.99
2022-08-18T08:57:51.829Z,23.72
2022-08-18T09:00:20.172Z,23.11
2022-08-18T09:03:03.712Z,23.77
2022-08-18T09:05:41.460Z,24.44
2022-08-18T09:08:26.358Z,25.84
2022-08-18T09:11:11.769Z,28.02
2022-08-18T09:14:17.974Z,28.09
2022-08-18T09:16:59.461Z,29.26
2022-08-18T09:19:47.030Z,29.17
2022-08-18T09:22:30.246Z,29.74
2022-08-18T09:24:58.761Z,30.27
2022-08-18T09:28:09.330Z,29.00
2022-08-18T09:30:47.748Z,30.35
2022-08-18T09:33:35.102Z,28.86
2022-08-18T09:36:31.840Z,30.17
2022-08-18T09:39:27.706Z,30.14
2022-08-18T09:41:59.660Z,31.57
2022-08-18T09:48:32.596Z,31.01
2022-08-18T09:51:34.934Z,33.54
2022-08-18T09:54:14.638Z,32.22
2022-08-18T09:57:24.412Z,31.78
2022-08-18T10:00:28.833Z,32.97
2022-08-18T10:03:15.614Z,32.24
2022-08-18T10:06:12.403Z,32.63
2022-08-18T10:12:27.318Z,32.76
2022-08-18T10:15:33.265Z,33.94
2022-08-18T10:18:25.991Z,34.34
2022-08-18T10:21:05.237Z,36.40
2022-08-18T10:24:14.536Z,34.57
2022-08-18T10:27:10.352Z,34.57
2022-08-18T10:29:53.026Z,35.45
2022-08-18T10:32:52.282Z,34.04
2022-08-18T10:36:07.109Z,33.20
2022-08-18T10:38:45.942Z,34.92
2022-08-18T10:41:32.232Z,35.61
2022-08-18T10:44:10.584Z,37.92
2022-08-18T10:46:54.290Z,40.52
2022-08-18T10:49:26.724Z,41.56
2022-08-18T10:52:16.397Z,40.38
2022-08-18T10:55:06.930Z,39.37
2022-08-18T10:58:10.814Z,36.98
2022-08-18T11:00:52.825Z,38.65
2022-08-18T11:03:52.293Z,39.40
2022-08-18T11:06:26.494Z,38.95
2022-08-18T11:08:57.867Z,38.66
2022-08-18T11:11:34.200Z,38.00
2022-08-18T11:14:24.400Z,34.87
2022-08-18T11:17:04.132Z,37.19
2022-08-18T11:22:31.472Z,35.88
2022-08-18T11:25:01.237Z,37.26
2022-08-18T11:27:36.196Z,37.44
2022-08-18T11:30:07.030Z,36.46
2022-08-18T11:32:42.520Z,36.38
2022-08-18T11:35:25.167Z,34.54
2022-08-18T11:37:59.851Z,34.88
2022-08-18T11:41:10.847Z,34.42
2022-08-18T11:43:29.722Z,34.53
2022-08-18T11:46:16.439Z,33.87
2022-08-18T11:48:51.803Z,31.92
2022-08-18T11:51:25.212Z,30.17
2022-08-18T11:53:59.566Z,30.71
2022-08-18T11:56:31.491Z,30.88
2022-08-18T11:59:02.765Z,31.63
2022-08-18T12:01:48.695Z,32.36
2022-08-18T12:04:25.792Z,31.69
2022-08-18T12:07:04.422Z,32.43
2022-08-18T12:12:30.715Z,31.16
2022-08-18T12:15:09.130Z,31.30
2022-08-18T12:17:52.282Z,31.25
2022-08-18T12:20:22.694Z,31.83
2022-08-18T12:22:56.441Z,32.16
2022-08-18T12:25:25.929Z,32.42
2022-08-18T12:27:54.129Z,32.76
2022-08-18T12:30:22.078Z,33.39
2022-08-18T12:35:41.843Z,32.96
2022-08-18T12:38:13.958Z,32.74
2022-08-18T12:40:43.976Z,33.93
2022-08-18T12:43:12.505Z,32.22
2022-08-18T12:45:41.911Z,32.76
2022-08-18T12:48:10.533Z,31.74
2022-08-18T12:50:54.485Z,31.44
2022-08-18T12:53:29.964Z,31.19
2022-08-18T12:56:22.704Z,31.45
2022-08-18T12:58:53.595Z,31.93
2022-08-18T13:01:23.318Z,33.30
2022-08-18T13:04:11.187Z,32.90
2022-08-18T13:06:54.178Z,32.95
2022-08-18T13:09:35.028Z,32.24
2022-08-18T13:12:19.191Z,32.35
2022-08-18T13:14:48.701Z,31.65
2022-08-18T13:17:29.475Z,31.66
2022-08-18T13:20:02.862Z,31.41
2022-08-18T13:22:32.661Z,31.92
2022-08-18T13:25:04.010Z,31.55
2022-08-18T13:27:35.705Z,30.76
2022-08-18T13:30:30.387Z,30.66
2022-08-18T13:32:58.889Z,30.93
2022-08-18T13:35:38.419Z,31.06
2022-08-18T13:38:17.457Z,30.78
2022-08-18T13:40:49.475Z,31.35
2022-08-18T13:43:20.761Z,30.77
2022-08-18T13:45:53.409Z,30.78
2022-08-18T13:48:24.541Z,30.27
2022-08-18T13:50:56.037Z,30.15
2022-08-18T13:53:26.359Z,30.70
2022-08-18T13:55:59.229Z,30.16
2022-08-18T13:58:28.735Z,29.98
2022-08-18T14:01:22.832Z,30.14
2022-08-18T14:03:48.516Z,29.74
2022-08-18T14:06:22.678Z,29.87
2022-08-18T14:08:52.659Z,29.67
2022-08-18T14:11:27.357Z,29.93
2022-08-18T14:13:56.631Z,29.33
2022-08-18T14:16:26.728Z,29.46
2022-08-18T14:19:12.807Z,29.76
2022-08-18T14:22:02.569Z,29.32
2022-08-18T14:24:48.977Z,29.24
2022-08-18T14:27:19.729Z,29.38
2022-08-18T14:29:50.381Z,29.10
2022-08-18T14:32:29.483Z,29.23
2022-08-18T14:35:00.347Z,29.08
2022-08-18T14:37:29.608Z,28.88
2022-08-18T14:39:58.575Z,29.49
2022-08-18T14:42:33.104Z,29.51
2022-08-18T14:45:17.865Z,29.68
2022-08-18T14:47:56.602Z,29.73
2022-08-18T14:50:26.391Z,30.29
2022-08-18T14:52:54.421Z,30.22
2022-08-18T14:55:23.744Z,29.89
2022-08-18T14:57:53.826Z,29.74
2022-08-18T15:00:23.006Z,29.98
2022-08-18T15:02:52.204Z,30.16
2022-08-18T15:05:24.337Z,29.74
2022-08-18T15:07:53.967Z,29.57
2022-08-18T15:10:23.677Z,29.69
2022-08-18T15:12:59.756Z,29.67
2022-08-18T15:15:50.773Z,29.40
2022-08-18T15:18:22.353Z,29.59
2022-08-18T15:21:10.429Z,29.66
2022-08-18T15:24:04.724Z,29.17
2022-08-18T15:26:43.912Z,29.10
2022-08-18T15:29:14.998Z,29.03
2022-08-18T15:31:50.834Z,29.42
2022-08-18T15:34:20.781Z,29.43
2022-08-18T15:36:49.470Z,29.83
2022-08-18T15:39:17.629Z,29.87
2022-08-18T15:44:24.660Z,28.77
2022-08-18T15:46:53.612Z,28.86
2022-08-18T15:49:23.956Z,28.57
2022-08-18T15:51:52.624Z,28.36
2022-08-18T15:54:20.908Z,28.75
2022-08-18T15:56:58.252Z,28.76
2022-08-18T15:59:34.158Z,29.36
2022-08-18T16:02:11.628Z,29.20
2022-08-18T16:04:41.287Z,29.62
2022-08-18T16:07:11.467Z,29.69
2022-08-18T16:09:39.390Z,28.73
2022-08-18T16:12:10.439Z,28.97
2022-08-18T16:14:40.957Z,28.66
2022-08-18T16:17:17.974Z,28.51
2022-08-18T16:19:52.283Z,28.76
2022-08-18T16:22:21.689Z,28.78
2022-08-18T16:24:55.005Z,29.24
2022-08-18T16:27:23.177Z,28.98
2022-08-18T16:29:52.387Z,29.12
2022-08-18T16:32:20.368Z,29.67
2022-08-18T16:34:48.245Z,29.02
2022-08-18T16:39:49.425Z,28.86
2022-08-18T16:42:18.597Z,28.55
2022-08-18T16:44:46.764Z,28.50
2022-08-18T16:47:18.643Z,28.21
2022-08-18T16:49:48.635Z,28.41
2022-08-18T16:52:18.080Z,28.54
2022-08-18T16:54:46.703Z,28.27
2022-08-18T16:57:53.405Z,28.30
2022-08-18T17:00:42.289Z,28.37
2022-08-18T17:03:30.420Z,28.01
2022-08-18T17:06:03.090Z,27.90
2022-08-18T17:08:34.250Z,28.03
2022-08-18T17:11:03.031Z,28.29
2022-08-18T17:13:31.414Z,27.74
2022-08-18T17:15:59.599Z,27.48
2022-08-18T17:18:29.983Z,27.47
2022-08-18T17:20:57.898Z,27.03
2022-08-18T17:23:27.542Z,27.12
2022-08-18T17:25:56.911Z,27.07
2022-08-18T17:28:46.758Z,26.90
2022-08-18T17:31:20.692Z,26.71
2022-08-18T17:33:50.548Z,26.53
2022-08-18T17:36:26.608Z,26.56
2022-08-18T17:39:00.364Z,26.45
2022-08-18T17:41:29.296Z,26.42
2022-08-18T17:44:00.940Z,26.47
2022-08-18T17:46:38.223Z,26.25
2022-08-18T17:49:13.876Z,26.01
2022-08-18T17:51:45.833Z,26.11
2022-08-18T17:54:27.908Z,26.32
2022-08-18T17:57:01.530Z,26.06
2022-08-18T17:59:46.016Z,25.95
2022-08-18T18:02:28.557Z,26.08
2022-08-18T18:05:01.657Z,25.99
2022-08-18T18:07:33.194Z,25.88
2022-08-18T18:10:05.135Z,26.03
2022-08-18T18:12:36.247Z,25.77
2022-08-18T18:15:07.784Z,25.58
2022-08-18T18:17:38.839Z,25.45
2022-08-18T18:20:25.148Z,25.45
2022-08-18T18:22:53.341Z,25.44
2022-08-18T18:25:34.422Z,25.37
2022-08-18T18:28:03.783Z,25.35
2022-08-18T18:30:32.802Z,25.14
2022-08-18T18:33:04.756Z,24.98
2022-08-18T18:35:54.643Z,24.90
2022-08-18T18:38:28.946Z,24.90
2022-08-18T18:41:00.596Z,24.68
2022-08-18T18:43:36.793Z,24.57
2022-08-18T18:46:29.131Z,24.45
2022-08-18T18:49:07.550Z,24.49
2022-08-18T18:51:42.632Z,24.24
2022-08-18T18:54:22.357Z,24.20
2022-08-18T18:56:54.347Z,24.19
2022-08-18T18:59:38.602Z,24.24
2022-08-18T19:02:33.736Z,24.22
2022-08-18T19:05:13.519Z,24.20
2022-08-18T19:07:54.360Z,24.10
2022-08-18T19:10:27.377Z,24.08
2022-08-18T19:12:59.385Z,24.01
2022-08-18T19:15:28.646Z,24.07
2022-08-18T19:18:01.617Z,23.94
2022-08-18T19:20:33.456Z,24.01
2022-08-18T19:23:07.534Z,23.99
2022-08-18T19:25:39.254Z,23.94
2022-08-18T19:28:13.788Z,23.79
2022-08-18T19:30:47.334Z,23.53
2022-08-18T19:33:25.789Z,23.60
2022-08-18T19:35:59.363Z,23.61
2022-08-18T19:38:34.758Z,23.56
2022-08-18T19:41:19.934Z,23.43
2022-08-18T19:43:54.631Z,23.42
2022-08-18T19:46:37.101Z,23.37
2022-08-18T19:49:11.294Z,23.41
2022-08-18T19:51:42.482Z,23.56
2022-08-18T19:54:33.727Z,23.41
2022-08-18T19:57:24.203Z,23.27
2022-08-18T20:00:14.868Z,23.49
2022-08-18T20:03:09.916Z,23.40
2022-08-18T20:05:47.415Z,23.22
2022-08-18T20:08:50.489Z,23.41
2022-08-18T20:11:42.020Z,23.45
2022-08-18T20:14:13.161Z,23.50
2022-08-18T20:16:45.099Z,23.38
2022-08-18T20:19:42.136Z,23.29
2022-08-18T20:22:16.071Z,23.54
2022-08-18T20:24:51.434Z,23.67
2022-08-18T20:27:37.161Z,23.39
2022-08-18T20:30:33.957Z,23.43
2022-08-18T20:33:19.049Z,23.44
2022-08-18T20:36:11.480Z,23.59
2022-08-18T20:38:42.811Z,23.35
2022-08-18T20:41:38.072Z,23.28
2022-08-18T20:44:36.450Z,23.13
2022-08-18T20:47:19.125Z,23.17
2022-08-18T20:50:02.971Z,22.96
2022-08-18T20:52:41.279Z,23.11
2022-08-18T20:55:18.186Z,23.06
2022-08-18T20:57:47.183Z,23.05
2022-08-18T21:00:23.921Z,22.92
2022-08-18T21:02:58.398Z,22.92
2022-08-18T21:05:30.135Z,22.69
2022-08-18T21:08:03.087Z,22.35
2022-08-18T21:10:33.514Z,21.93
2022-08-18T21:13:04.801Z,21.68
2022-08-18T21:15:38.442Z,21.33
2022-08-18T21:18:08.696Z,21.15
2022-08-18T21:20:37.006Z,21.08
2022-08-18T21:23:09.998Z,20.98
2022-08-18T21:25:50.456Z,20.95
2022-08-18T21:28:21.944Z,20.73
2022-08-18T21:31:41.746Z,20.75
2022-08-18T21:33:51.429Z,20.57
2022-08-18T21:36:23.326Z,20.45
2022-08-18T21:39:05.232Z,20.38
2022-08-18T21:41:40.581Z,20.31
2022-08-18T21:44:14.977Z,20.28
2022-08-18T21:46:46.632Z,20.19
2022-08-18T21:49:24.936Z,20.11
2022-08-18T21:51:53.051Z,20.13
2022-08-18T21:54:24.109Z,20.16
2022-08-18T21:57:20.452Z,20.15
2022-08-18T22:00:17.318Z,20.04
2022-08-18T22:02:52.057Z,20.19
2022-08-18T22:05:29.750Z,20.26
2022-08-18T22:08:20.548Z,20.50
2022-08-18T22:12:00.038Z,20.50
2022-08-18T22:14:35.938Z,20.48
2022-08-18T22:17:31.291Z,20.41
2022-08-18T22:20:32.407Z,20.54
2022-08-18T22:23:24.037Z,20.46
2022-08-18T22:25:52.493Z,20.51
2022-08-18T22:28:27.528Z,20.45
2022-08-18T22:30:55.947Z,20.57
2022-08-18T22:33:23.879Z,20.65
2022-08-18T22:35:55.308Z,20.61
2022-08-18T22:38:28.182Z,20.70
2022-08-18T22:40:56.869Z,20.66
2022-08-18T22:43:24.803Z,20.66
2022-08-18T22:45:52.727Z,20.64
2022-08-18T22:48:20.997Z,20.75
2022-08-18T22:50:48.890Z,20.53
2022-08-18T22:53:19.276Z,20.47
2022-08-18T22:55:49.353Z,20.51
2022-08-18T22:58:28.253Z,20.46
2022-08-18T23:01:05.326Z,20.36
2022-08-18T23:03:41.641Z,20.36
2022-08-18T23:06:11.709Z,20.18
2022-08-18T23:08:54.914Z,20.00
2022-08-18T23:11:26.049Z,19.84
2022-08-18T23:13:54.415Z,19.77
2022-08-18T23:16:31.387Z,19.75
2022-08-18T23:19:02.074Z,19.84
2022-08-18T23:21:33.729Z,19.80
2022-08-18T23:24:04.792Z,19.88
2022-08-18T23:26:35.068Z,20.02
2022-08-18T23:29:03.740Z,19.96
2022-08-18T23:31:31.796Z,20.09
2022-08-18T23:34:01.017Z,20.29
2022-08-18T23:36:30.148Z,20.53
2022-08-18T23:38:59.326Z,20.49
2022-08-18T23:41:27.742Z,20.55
2022-08-18T23:43:58.055Z,20.67
2022-08-18T23:46:31.997Z,20.51
2022-08-18T23:49:02.921Z,20.50
2022-08-18T23:51:34.293Z,20.57
2022-08-18T23:54:06.989Z,20.62
2022-08-18T23:56:36.187Z,20.68
2022-08-18T23:59:07.893Z,20.56
